XAA2281 KAPA-KMEM
Flight info
| Callsign | XAA2281 |
|---|---|
| Flight time | 1h 53m |
| Altitude | 41000 |
| Route | ECHOO1 DUUZE RASCL RZC BRBBQ3 |
| Aircraft | CL60/M-SBDE1E2E3FGHIJ1J4J5J7M3RWXYZ/LB1V1D1 |
Departure
| Time | 2026-04-22 01:28 |
|---|---|
| Airport | Centennial Airport (KAPA) |
Arrival
| Time | 2026-04-22 03:22 |
|---|---|
| Airport | Memphis International Airport (KMEM) |
| Time | Latitude | Longitude | Altitude | Speed | Heading |
|---|---|---|---|---|---|
| 2026-04-22 00:52 | 39.57032 | -104.84812 | 5830 ft | 0 kts | 180° |
| 2026-04-22 01:23 | 39.57029 | -104.84812 | 5830 ft | 0 kts | 180° |
| 2026-04-22 01:23 | 39.57014 | -104.84817 | 5831 ft | 3 kts | 225° |
| 2026-04-22 01:24 | 39.57005 | -104.84856 | 5833 ft | 9 kts | 277° |
| 2026-04-22 01:24 | 39.57071 | -104.84884 | 5830 ft | 13 kts | 357° |
| 2026-04-22 01:24 | 39.57135 | -104.84909 | 5828 ft | 9 kts | 284° |
| 2026-04-22 01:24 | 39.57190 | -104.84950 | 5827 ft | 13 kts | 358° |
| 2026-04-22 01:25 | 39.57312 | -104.84956 | 5822 ft | 20 kts | 357° |
| 2026-04-22 01:25 | 39.57478 | -104.84962 | 5818 ft | 26 kts | 359° |
| 2026-04-22 01:25 | 39.57682 | -104.84972 | 5813 ft | 30 kts | 358° |
| 2026-04-22 01:25 | 39.57903 | -104.84982 | 5807 ft | 31 kts | 358° |
| 2026-04-22 01:26 | 39.58123 | -104.84995 | 5796 ft | 32 kts | 356° |
| 2026-04-22 01:26 | 39.58261 | -104.84999 | 5787 ft | 14 kts | 358° |
| 2026-04-22 01:26 | 39.58357 | -104.85004 | 5781 ft | 10 kts | 0° |
| 2026-04-22 01:26 | 39.58405 | -104.85009 | 5779 ft | 6 kts | 321° |
| 2026-04-22 01:27 | 39.58410 | -104.85026 | 5778 ft | 0 kts | 269° |
| 2026-04-22 01:27 | 39.58410 | -104.85073 | 5777 ft | 11 kts | 268° |
| 2026-04-22 01:27 | 39.58404 | -104.85141 | 5777 ft | 1 kts | 228° |
| 2026-04-22 01:27 | 39.58321 | -104.85141 | 5783 ft | 36 kts | 178° |
| 2026-04-22 01:28 | 39.57764 | -104.85117 | 5812 ft | 120 kts | 178° |
| 2026-04-22 01:28 | 39.56778 | -104.85053 | 6152 ft | 157 kts | 174° |
| 2026-04-22 01:28 | 39.55602 | -104.84978 | 6747 ft | 183 kts | 176° |
| 2026-04-22 01:28 | 39.54225 | -104.84887 | 7343 ft | 212 kts | 169° |
| 2026-04-22 01:29 | 39.52875 | -104.84197 | 8324 ft | 215 kts | 144° |
| 2026-04-22 01:29 | 39.51889 | -104.82735 | 9328 ft | 227 kts | 117° |
| 2026-04-22 01:29 | 39.51399 | -104.80783 | 10345 ft | 239 kts | 103° |
| 2026-04-22 01:29 | 39.51075 | -104.78577 | 11045 ft | 264 kts | 101° |
| 2026-04-22 01:30 | 39.50993 | -104.76081 | 11663 ft | 292 kts | 88° |
| 2026-04-22 01:30 | 39.51250 | -104.73284 | 11774 ft | 333 kts | 84° |
| 2026-04-22 01:30 | 39.51578 | -104.70157 | 12215 ft | 355 kts | 84° |
| 2026-04-22 01:30 | 39.51904 | -104.66953 | 12972 ft | 366 kts | 84° |
| 2026-04-22 01:31 | 39.52231 | -104.63640 | 13909 ft | 371 kts | 84° |
| 2026-04-22 01:31 | 39.52502 | -104.60770 | 14734 ft | 375 kts | 84° |
| 2026-04-22 01:31 | 39.52845 | -104.57085 | 15738 ft | 382 kts | 84° |
| 2026-04-22 01:31 | 39.53158 | -104.53661 | 16668 ft | 387 kts | 84° |
| 2026-04-22 01:32 | 39.53471 | -104.50186 | 17568 ft | 393 kts | 84° |
| 2026-04-22 01:32 | 39.53780 | -104.46658 | 18418 ft | 400 kts | 84° |
| 2026-04-22 01:32 | 39.54082 | -104.43136 | 19216 ft | 406 kts | 84° |
| 2026-04-22 01:32 | 39.54402 | -104.39395 | 20016 ft | 412 kts | 84° |
| 2026-04-22 01:33 | 39.54720 | -104.35664 | 20761 ft | 419 kts | 84° |
| 2026-04-22 01:33 | 39.55033 | -104.31971 | 21471 ft | 425 kts | 84° |
| 2026-04-22 01:33 | 39.55361 | -104.28082 | 22187 ft | 431 kts | 84° |
| 2026-04-22 01:33 | 39.55687 | -104.24206 | 22866 ft | 436 kts | 84° |
| 2026-04-22 01:34 | 39.56014 | -104.20306 | 23570 ft | 441 kts | 84° |
| 2026-04-22 01:34 | 39.56343 | -104.16349 | 24303 ft | 444 kts | 84° |
| 2026-04-22 01:34 | 39.56671 | -104.12403 | 25003 ft | 447 kts | 84° |
| 2026-04-22 01:34 | 39.57005 | -104.08361 | 25661 ft | 450 kts | 84° |
| 2026-04-22 01:35 | 39.57340 | -104.04282 | 26289 ft | 453 kts | 84° |
| 2026-04-22 01:35 | 39.57673 | -104.00214 | 26899 ft | 455 kts | 84° |
| 2026-04-22 01:35 | 39.58004 | -103.96147 | 27434 ft | 459 kts | 84° |
| 2026-04-22 01:35 | 39.58338 | -103.92026 | 27945 ft | 462 kts | 84° |
| 2026-04-22 01:36 | 39.58676 | -103.87844 | 28414 ft | 466 kts | 84° |
| 2026-04-22 01:36 | 39.59001 | -103.83678 | 28872 ft | 468 kts | 86° |
| 2026-04-22 01:36 | 39.58890 | -103.79430 | 29362 ft | 468 kts | 99° |
| 2026-04-22 01:36 | 39.58025 | -103.75406 | 29803 ft | 468 kts | 110° |
| 2026-04-22 01:37 | 39.56895 | -103.71420 | 30285 ft | 468 kts | 111° |
| 2026-04-22 01:37 | 39.55778 | -103.67458 | 30825 ft | 467 kts | 111° |
| 2026-04-22 01:37 | 39.54663 | -103.63509 | 31378 ft | 464 kts | 111° |
| 2026-04-22 01:37 | 39.53567 | -103.59631 | 31905 ft | 463 kts | 111° |
| 2026-04-22 01:38 | 39.52458 | -103.55717 | 32411 ft | 461 kts | 111° |
| 2026-04-22 01:38 | 39.51352 | -103.51818 | 32880 ft | 460 kts | 111° |
| 2026-04-22 01:38 | 39.50250 | -103.47939 | 33337 ft | 459 kts | 111° |
| 2026-04-22 01:38 | 39.49151 | -103.44078 | 33768 ft | 458 kts | 111° |
| 2026-04-22 01:39 | 39.48047 | -103.40206 | 34248 ft | 457 kts | 111° |
| 2026-04-22 01:39 | 39.46944 | -103.36342 | 34733 ft | 456 kts | 111° |
| 2026-04-22 01:39 | 39.45844 | -103.32493 | 35232 ft | 454 kts | 112° |
| 2026-04-22 01:39 | 39.44747 | -103.28664 | 35681 ft | 452 kts | 112° |
| 2026-04-22 01:40 | 39.43663 | -103.24885 | 36131 ft | 451 kts | 112° |
| 2026-04-22 01:40 | 39.42570 | -103.21078 | 36558 ft | 450 kts | 112° |
| 2026-04-22 01:40 | 39.41473 | -103.17266 | 36947 ft | 449 kts | 112° |
| 2026-04-22 01:40 | 39.40382 | -103.13479 | 37319 ft | 449 kts | 112° |
| 2026-04-22 01:41 | 39.39298 | -103.09721 | 37678 ft | 448 kts | 112° |
| 2026-04-22 01:41 | 39.38216 | -103.05977 | 38012 ft | 447 kts | 112° |
| 2026-04-22 01:41 | 39.37145 | -103.02273 | 38322 ft | 446 kts | 112° |
| 2026-04-22 01:41 | 39.36058 | -102.98525 | 38617 ft | 446 kts | 112° |
| 2026-04-22 01:42 | 39.34952 | -102.94810 | 38910 ft | 444 kts | 115° |
| 2026-04-22 01:42 | 39.33607 | -102.91200 | 39165 ft | 443 kts | 118° |
| 2026-04-22 01:42 | 39.32231 | -102.87712 | 39366 ft | 444 kts | 118° |
| 2026-04-22 01:42 | 39.30829 | -102.84146 | 39571 ft | 444 kts | 118° |
| 2026-04-22 01:43 | 39.29444 | -102.80624 | 39777 ft | 444 kts | 118° |
| 2026-04-22 01:43 | 39.28059 | -102.77104 | 39940 ft | 444 kts | 118° |
| 2026-04-22 01:43 | 39.26723 | -102.73711 | 40068 ft | 445 kts | 118° |
| 2026-04-22 01:43 | 39.25328 | -102.70174 | 40207 ft | 446 kts | 118° |
| 2026-04-22 01:44 | 39.23922 | -102.66608 | 40328 ft | 446 kts | 118° |
| 2026-04-22 01:44 | 39.22513 | -102.63041 | 40440 ft | 447 kts | 118° |
| 2026-04-22 01:44 | 39.21092 | -102.59446 | 40568 ft | 448 kts | 118° |
| 2026-04-22 01:44 | 39.19667 | -102.55843 | 40688 ft | 448 kts | 118° |
| 2026-04-22 01:45 | 39.18259 | -102.52289 | 40794 ft | 448 kts | 118° |
| 2026-04-22 01:45 | 39.16831 | -102.48685 | 40914 ft | 449 kts | 118° |
| 2026-04-22 01:45 | 39.14002 | -102.41560 | 41055 ft | 451 kts | 118° |
| 2026-04-22 01:46 | 39.11126 | -102.34373 | 41065 ft | 455 kts | 118° |
| 2026-04-22 01:46 | 39.08188 | -102.27056 | 41055 ft | 459 kts | 118° |
| 2026-04-22 01:47 | 39.05238 | -102.19724 | 41048 ft | 462 kts | 118° |
| 2026-04-22 01:47 | 39.02287 | -102.12404 | 41065 ft | 463 kts | 118° |
| 2026-04-22 01:48 | 38.99324 | -102.05074 | 41053 ft | 463 kts | 118° |
| 2026-04-22 01:48 | 38.96393 | -101.97839 | 41045 ft | 462 kts | 118° |
| 2026-04-22 01:49 | 38.93409 | -101.90489 | 41042 ft | 461 kts | 118° |
| 2026-04-22 01:49 | 38.90441 | -101.83196 | 41035 ft | 461 kts | 118° |
| 2026-04-22 01:50 | 38.87466 | -101.75906 | 41024 ft | 462 kts | 118° |
| 2026-04-22 01:50 | 38.84761 | -101.68619 | 41033 ft | 463 kts | 110° |
| 2026-04-22 01:51 | 38.82954 | -101.60783 | 41025 ft | 464 kts | 106° |
| 2026-04-22 01:51 | 38.81177 | -101.52806 | 41014 ft | 464 kts | 106° |
| 2026-04-22 01:52 | 38.79394 | -101.44843 | 41016 ft | 464 kts | 105° |
| 2026-04-22 01:52 | 38.77616 | -101.36943 | 41008 ft | 464 kts | 105° |
| 2026-04-22 01:53 | 38.75827 | -101.29020 | 41016 ft | 463 kts | 106° |
| 2026-04-22 01:53 | 38.74019 | -101.21053 | 41003 ft | 463 kts | 106° |
| 2026-04-22 01:54 | 38.72234 | -101.13218 | 41002 ft | 463 kts | 106° |
| 2026-04-22 01:54 | 38.70432 | -101.05335 | 41010 ft | 462 kts | 106° |
| 2026-04-22 01:55 | 38.68614 | -100.97411 | 41004 ft | 462 kts | 105° |
| 2026-04-22 01:55 | 38.66798 | -100.89525 | 41006 ft | 462 kts | 106° |
| 2026-04-22 01:56 | 38.64973 | -100.81632 | 41007 ft | 462 kts | 106° |
| 2026-04-22 01:56 | 38.63149 | -100.73767 | 41000 ft | 462 kts | 106° |
| 2026-04-22 01:57 | 38.61326 | -100.65935 | 40996 ft | 462 kts | 106° |
| 2026-04-22 01:57 | 38.59481 | -100.58035 | 41003 ft | 462 kts | 105° |
| 2026-04-22 01:58 | 38.57640 | -100.50178 | 41002 ft | 462 kts | 105° |
| 2026-04-22 01:58 | 38.55819 | -100.42435 | 40999 ft | 462 kts | 105° |
| 2026-04-22 01:59 | 38.53966 | -100.34583 | 40993 ft | 462 kts | 106° |
| 2026-04-22 01:59 | 38.52117 | -100.26771 | 40997 ft | 462 kts | 106° |
| 2026-04-22 02:00 | 38.50246 | -100.18895 | 41006 ft | 462 kts | 106° |
| 2026-04-22 02:00 | 38.48375 | -100.11047 | 41001 ft | 462 kts | 106° |
| 2026-04-22 02:01 | 38.46496 | -100.03189 | 40998 ft | 462 kts | 106° |
| 2026-04-22 02:01 | 38.44616 | -99.95351 | 41004 ft | 462 kts | 106° |
| 2026-04-22 02:02 | 38.42733 | -99.87534 | 40998 ft | 462 kts | 106° |
| 2026-04-22 02:02 | 38.40834 | -99.79672 | 40996 ft | 462 kts | 106° |
| 2026-04-22 02:03 | 38.38944 | -99.71870 | 40994 ft | 462 kts | 106° |
| 2026-04-22 02:03 | 38.37039 | -99.64036 | 40998 ft | 462 kts | 106° |
| 2026-04-22 02:04 | 38.34175 | -99.52306 | 40996 ft | 462 kts | 105° |
| 2026-04-22 02:05 | 38.32262 | -99.44499 | 41005 ft | 462 kts | 105° |
| 2026-04-22 02:05 | 38.30342 | -99.36693 | 41014 ft | 462 kts | 105° |
| 2026-04-22 02:06 | 38.28426 | -99.28927 | 40998 ft | 463 kts | 106° |
| 2026-04-22 02:06 | 38.26498 | -99.21139 | 41007 ft | 462 kts | 106° |
| 2026-04-22 02:07 | 38.24559 | -99.13329 | 41002 ft | 462 kts | 106° |
| 2026-04-22 02:07 | 38.22618 | -99.05536 | 41009 ft | 462 kts | 106° |
| 2026-04-22 02:08 | 38.20670 | -98.97744 | 41020 ft | 462 kts | 106° |
| 2026-04-22 02:08 | 38.18708 | -98.89915 | 41025 ft | 462 kts | 106° |
| 2026-04-22 02:09 | 38.16763 | -98.82182 | 41002 ft | 462 kts | 106° |
| 2026-04-22 02:09 | 38.14789 | -98.74359 | 41011 ft | 462 kts | 106° |
| 2026-04-22 02:10 | 38.12833 | -98.66634 | 41018 ft | 462 kts | 106° |
| 2026-04-22 02:10 | 38.10853 | -98.58836 | 41032 ft | 462 kts | 106° |
| 2026-04-22 02:11 | 38.08889 | -98.51125 | 41035 ft | 462 kts | 106° |
| 2026-04-22 02:11 | 38.06908 | -98.43372 | 41015 ft | 462 kts | 106° |
| 2026-04-22 02:12 | 38.04924 | -98.35627 | 41029 ft | 461 kts | 105° |
| 2026-04-22 02:12 | 38.02932 | -98.27879 | 41031 ft | 461 kts | 106° |
| 2026-04-22 02:13 | 38.00576 | -98.20385 | 41044 ft | 463 kts | 115° |
| 2026-04-22 02:13 | 37.97647 | -98.13176 | 41052 ft | 462 kts | 115° |
| 2026-04-22 02:14 | 37.94820 | -98.06216 | 41038 ft | 463 kts | 115° |
| 2026-04-22 02:14 | 37.92046 | -97.99396 | 41041 ft | 462 kts | 115° |
| 2026-04-22 02:15 | 37.88913 | -97.91708 | 41035 ft | 462 kts | 115° |
| 2026-04-22 02:15 | 37.85957 | -97.84470 | 41033 ft | 462 kts | 115° |
| 2026-04-22 02:16 | 37.83020 | -97.77296 | 41054 ft | 463 kts | 115° |
| 2026-04-22 02:16 | 37.80256 | -97.70556 | 41039 ft | 463 kts | 115° |
| 2026-04-22 02:17 | 37.77255 | -97.63253 | 41053 ft | 462 kts | 115° |
| 2026-04-22 02:17 | 37.74321 | -97.56129 | 41065 ft | 462 kts | 115° |
| 2026-04-22 02:18 | 37.71309 | -97.48833 | 41068 ft | 462 kts | 115° |
| 2026-04-22 02:18 | 37.68480 | -97.41994 | 41071 ft | 462 kts | 115° |
| 2026-04-22 02:19 | 37.65494 | -97.34792 | 41065 ft | 462 kts | 116° |
| 2026-04-22 02:19 | 37.62774 | -97.28247 | 41077 ft | 462 kts | 116° |
| 2026-04-22 02:20 | 37.59532 | -97.20461 | 41069 ft | 462 kts | 115° |
| 2026-04-22 02:20 | 37.56554 | -97.13325 | 41073 ft | 463 kts | 116° |
| 2026-04-22 02:21 | 37.53596 | -97.06255 | 41076 ft | 463 kts | 116° |
| 2026-04-22 02:21 | 37.50642 | -96.99210 | 41071 ft | 463 kts | 116° |
| 2026-04-22 02:22 | 37.47697 | -96.92201 | 41076 ft | 462 kts | 115° |
| 2026-04-22 02:22 | 37.45011 | -96.85822 | 41088 ft | 461 kts | 115° |
| 2026-04-22 02:23 | 37.42445 | -96.79738 | 41085 ft | 462 kts | 115° |
| 2026-04-22 02:23 | 37.39104 | -96.71835 | 41098 ft | 462 kts | 115° |
| 2026-04-22 02:24 | 37.36093 | -96.64732 | 41093 ft | 463 kts | 115° |
| 2026-04-22 02:24 | 37.33060 | -96.57591 | 41099 ft | 463 kts | 115° |
| 2026-04-22 02:25 | 37.30027 | -96.50464 | 41094 ft | 463 kts | 115° |
| 2026-04-22 02:25 | 37.26987 | -96.43337 | 41101 ft | 463 kts | 115° |
| 2026-04-22 02:26 | 37.23934 | -96.36195 | 41111 ft | 463 kts | 115° |
| 2026-04-22 02:26 | 37.20895 | -96.29104 | 41117 ft | 464 kts | 116° |
| 2026-04-22 02:27 | 37.17851 | -96.22013 | 41110 ft | 464 kts | 116° |
| 2026-04-22 02:27 | 37.14788 | -96.14896 | 41118 ft | 465 kts | 116° |
| 2026-04-22 02:28 | 37.11730 | -96.07806 | 41105 ft | 465 kts | 116° |
| 2026-04-22 02:28 | 37.08730 | -96.00865 | 41121 ft | 465 kts | 116° |
| 2026-04-22 02:29 | 37.05647 | -95.93748 | 41124 ft | 465 kts | 116° |
| 2026-04-22 02:29 | 37.02556 | -95.86627 | 41118 ft | 465 kts | 116° |
| 2026-04-22 02:30 | 36.99459 | -95.79509 | 41123 ft | 465 kts | 116° |
| 2026-04-22 02:30 | 36.96361 | -95.72404 | 41136 ft | 465 kts | 116° |
| 2026-04-22 02:31 | 36.93260 | -95.65306 | 41132 ft | 466 kts | 116° |
| 2026-04-22 02:31 | 36.90135 | -95.58170 | 41135 ft | 466 kts | 116° |
| 2026-04-22 02:32 | 36.87053 | -95.51146 | 41131 ft | 466 kts | 116° |
| 2026-04-22 02:32 | 36.83939 | -95.44064 | 41138 ft | 465 kts | 116° |
| 2026-04-22 02:33 | 36.80803 | -95.36948 | 41138 ft | 466 kts | 116° |
| 2026-04-22 02:33 | 36.77698 | -95.29919 | 41151 ft | 466 kts | 116° |
| 2026-04-22 02:34 | 36.74554 | -95.22815 | 41143 ft | 466 kts | 116° |
| 2026-04-22 02:34 | 36.71420 | -95.15749 | 41148 ft | 467 kts | 116° |
| 2026-04-22 02:35 | 36.68271 | -95.08665 | 41154 ft | 467 kts | 116° |
| 2026-04-22 02:35 | 36.65564 | -95.02588 | 41148 ft | 467 kts | 116° |
| 2026-04-22 02:36 | 36.62154 | -94.94946 | 41150 ft | 467 kts | 116° |
| 2026-04-22 02:36 | 36.59034 | -94.87972 | 41162 ft | 467 kts | 116° |
| 2026-04-22 02:37 | 36.55882 | -94.80940 | 41163 ft | 467 kts | 116° |
| 2026-04-22 02:37 | 36.52716 | -94.73893 | 41166 ft | 468 kts | 116° |
| 2026-04-22 02:38 | 36.49591 | -94.66952 | 41173 ft | 468 kts | 116° |
| 2026-04-22 02:38 | 36.46380 | -94.59834 | 41175 ft | 468 kts | 116° |
| 2026-04-22 02:39 | 36.43190 | -94.52777 | 41169 ft | 468 kts | 116° |
| 2026-04-22 02:39 | 36.40006 | -94.45748 | 41181 ft | 469 kts | 116° |
| 2026-04-22 02:40 | 36.36792 | -94.38670 | 41200 ft | 469 kts | 116° |
| 2026-04-22 02:40 | 36.33594 | -94.31641 | 41185 ft | 469 kts | 117° |
| 2026-04-22 02:41 | 36.30375 | -94.24580 | 41208 ft | 469 kts | 117° |
| 2026-04-22 02:41 | 36.27148 | -94.17518 | 41195 ft | 469 kts | 117° |
| 2026-04-22 02:42 | 36.24463 | -94.10232 | 41203 ft | 465 kts | 104° |
| 2026-04-22 02:42 | 36.23018 | -94.02469 | 41188 ft | 463 kts | 98° |
| 2026-04-22 02:43 | 36.21694 | -93.94623 | 41181 ft | 464 kts | 98° |
| 2026-04-22 02:43 | 36.20371 | -93.86829 | 41186 ft | 464 kts | 98° |
| 2026-04-22 02:44 | 36.19033 | -93.78989 | 41184 ft | 464 kts | 98° |
| 2026-04-22 02:44 | 36.17695 | -93.71180 | 41176 ft | 465 kts | 98° |
| 2026-04-22 02:45 | 36.16346 | -93.63353 | 41196 ft | 464 kts | 99° |
| 2026-04-22 02:45 | 36.14998 | -93.55563 | 41200 ft | 464 kts | 98° |
| 2026-04-22 02:46 | 36.13646 | -93.47784 | 41193 ft | 465 kts | 99° |
| 2026-04-22 02:46 | 36.12271 | -93.39909 | 41167 ft | 465 kts | 98° |
| 2026-04-22 02:47 | 36.10915 | -93.32184 | 41200 ft | 464 kts | 99° |
| 2026-04-22 02:47 | 36.09545 | -93.24403 | 41198 ft | 466 kts | 99° |
| 2026-04-22 02:48 | 36.08157 | -93.16556 | 41184 ft | 467 kts | 99° |
| 2026-04-22 02:48 | 36.06770 | -93.08751 | 41196 ft | 466 kts | 99° |
| 2026-04-22 02:49 | 36.05370 | -93.00903 | 41167 ft | 467 kts | 99° |
| 2026-04-22 02:49 | 36.03976 | -92.93121 | 41168 ft | 466 kts | 99° |
| 2026-04-22 02:50 | 36.02573 | -92.85311 | 41185 ft | 468 kts | 99° |
| 2026-04-22 02:50 | 36.01168 | -92.77531 | 41189 ft | 468 kts | 99° |
| 2026-04-22 02:51 | 35.99747 | -92.69688 | 41196 ft | 467 kts | 99° |
| 2026-04-22 02:51 | 35.98320 | -92.61848 | 41196 ft | 467 kts | 99° |
| 2026-04-22 02:52 | 35.96914 | -92.54147 | 41177 ft | 467 kts | 99° |
| 2026-04-22 02:52 | 35.96205 | -92.50275 | 40937 ft | 473 kts | 99° |
| 2026-04-22 02:52 | 35.95476 | -92.46304 | 40331 ft | 472 kts | 99° |
| 2026-04-22 02:52 | 35.94752 | -92.42374 | 39739 ft | 468 kts | 99° |
| 2026-04-22 02:53 | 35.94040 | -92.38510 | 39093 ft | 463 kts | 99° |
| 2026-04-22 02:53 | 35.93333 | -92.34690 | 38549 ft | 458 kts | 99° |
| 2026-04-22 02:53 | 35.92771 | -92.31652 | 38031 ft | 454 kts | 100° |
| 2026-04-22 02:53 | 35.92173 | -92.28426 | 37553 ft | 450 kts | 100° |
| 2026-04-22 02:54 | 35.91266 | -92.23539 | 36773 ft | 448 kts | 100° |
| 2026-04-22 02:54 | 35.90488 | -92.19349 | 36100 ft | 451 kts | 100° |
| 2026-04-22 02:54 | 35.89789 | -92.15597 | 35515 ft | 453 kts | 100° |
| 2026-04-22 02:54 | 35.89190 | -92.12388 | 35012 ft | 455 kts | 100° |
| 2026-04-22 02:55 | 35.88464 | -92.08500 | 34384 ft | 458 kts | 100° |
| 2026-04-22 02:55 | 35.87815 | -92.05034 | 33843 ft | 460 kts | 101° |
| 2026-04-22 02:55 | 35.87216 | -92.01838 | 33331 ft | 463 kts | 101° |
| 2026-04-22 02:55 | 35.86532 | -91.98202 | 32754 ft | 464 kts | 101° |
| 2026-04-22 02:56 | 35.85737 | -91.93977 | 32067 ft | 467 kts | 101° |
| 2026-04-22 02:56 | 35.85020 | -91.90175 | 31472 ft | 470 kts | 101° |
| 2026-04-22 02:56 | 35.84294 | -91.86337 | 30854 ft | 472 kts | 101° |
| 2026-04-22 02:56 | 35.83551 | -91.82409 | 30239 ft | 475 kts | 101° |
| 2026-04-22 02:57 | 35.82852 | -91.78725 | 29647 ft | 477 kts | 101° |
| 2026-04-22 02:57 | 35.82064 | -91.74662 | 29010 ft | 479 kts | 103° |
| 2026-04-22 02:57 | 35.80889 | -91.70870 | 28353 ft | 478 kts | 113° |
| 2026-04-22 02:57 | 35.79528 | -91.67203 | 27740 ft | 472 kts | 113° |
| 2026-04-22 02:58 | 35.78178 | -91.63543 | 27116 ft | 467 kts | 113° |
| 2026-04-22 02:58 | 35.76836 | -91.59905 | 26502 ft | 462 kts | 113° |
| 2026-04-22 02:58 | 35.75584 | -91.56517 | 25926 ft | 457 kts | 113° |
| 2026-04-22 02:58 | 35.74186 | -91.52737 | 25274 ft | 452 kts | 113° |
| 2026-04-22 02:59 | 35.72885 | -91.49220 | 24671 ft | 447 kts | 113° |
| 2026-04-22 02:59 | 35.71611 | -91.45782 | 24092 ft | 444 kts | 113° |
| 2026-04-22 02:59 | 35.70333 | -91.42336 | 23498 ft | 439 kts | 113° |
| 2026-04-22 02:59 | 35.69063 | -91.38917 | 22925 ft | 434 kts | 113° |
| 2026-04-22 03:00 | 35.67820 | -91.35575 | 22346 ft | 426 kts | 113° |
| 2026-04-22 03:00 | 35.66615 | -91.32334 | 21798 ft | 418 kts | 113° |
| 2026-04-22 03:00 | 35.65391 | -91.29050 | 21229 ft | 411 kts | 113° |
| 2026-04-22 03:00 | 35.64198 | -91.25850 | 20684 ft | 405 kts | 113° |
| 2026-04-22 03:01 | 35.63061 | -91.22804 | 20170 ft | 400 kts | 113° |
| 2026-04-22 03:01 | 35.61869 | -91.19612 | 19617 ft | 397 kts | 113° |
| 2026-04-22 03:01 | 35.60716 | -91.16531 | 19264 ft | 391 kts | 113° |
| 2026-04-22 03:01 | 35.59541 | -91.13391 | 19004 ft | 390 kts | 113° |
| 2026-04-22 03:02 | 35.58394 | -91.10331 | 18753 ft | 389 kts | 113° |
| 2026-04-22 03:02 | 35.57247 | -91.07272 | 18503 ft | 387 kts | 113° |
| 2026-04-22 03:02 | 35.56107 | -91.04238 | 18246 ft | 385 kts | 113° |
| 2026-04-22 03:02 | 35.54985 | -91.01254 | 18000 ft | 382 kts | 113° |
| 2026-04-22 03:03 | 35.53857 | -90.98255 | 17750 ft | 380 kts | 114° |
| 2026-04-22 03:03 | 35.52745 | -90.95300 | 17507 ft | 378 kts | 114° |
| 2026-04-22 03:03 | 35.51637 | -90.92360 | 17259 ft | 370 kts | 113° |
| 2026-04-22 03:03 | 35.50562 | -90.89513 | 17098 ft | 364 kts | 113° |
| 2026-04-22 03:04 | 35.49493 | -90.86680 | 16981 ft | 362 kts | 113° |
| 2026-04-22 03:04 | 35.48447 | -90.83908 | 16964 ft | 361 kts | 113° |
| 2026-04-22 03:04 | 35.47384 | -90.81091 | 16964 ft | 361 kts | 113° |
| 2026-04-22 03:04 | 35.46324 | -90.78286 | 16969 ft | 361 kts | 114° |
| 2026-04-22 03:05 | 35.45257 | -90.75464 | 16969 ft | 362 kts | 114° |
| 2026-04-22 03:05 | 35.44188 | -90.72639 | 16684 ft | 366 kts | 114° |
| 2026-04-22 03:05 | 35.43108 | -90.69789 | 16245 ft | 360 kts | 114° |
| 2026-04-22 03:05 | 35.42060 | -90.67033 | 15796 ft | 356 kts | 114° |
| 2026-04-22 03:06 | 35.41011 | -90.64288 | 15405 ft | 352 kts | 114° |
| 2026-04-22 03:06 | 35.39966 | -90.61557 | 15118 ft | 350 kts | 114° |
| 2026-04-22 03:06 | 35.38938 | -90.58873 | 14870 ft | 350 kts | 114° |
| 2026-04-22 03:06 | 35.37902 | -90.56170 | 14507 ft | 347 kts | 114° |
| 2026-04-22 03:07 | 35.36868 | -90.53474 | 14174 ft | 345 kts | 114° |
| 2026-04-22 03:07 | 35.35849 | -90.50819 | 13838 ft | 343 kts | 114° |
| 2026-04-22 03:07 | 35.34832 | -90.48202 | 13512 ft | 338 kts | 116° |
| 2026-04-22 03:07 | 35.33471 | -90.45821 | 13185 ft | 334 kts | 128° |
| 2026-04-22 03:08 | 35.31998 | -90.43645 | 12867 ft | 327 kts | 129° |
| 2026-04-22 03:08 | 35.30567 | -90.41518 | 12560 ft | 320 kts | 129° |
| 2026-04-22 03:08 | 35.29168 | -90.39434 | 12266 ft | 312 kts | 129° |
| 2026-04-22 03:08 | 35.27799 | -90.37385 | 11963 ft | 306 kts | 129° |
| 2026-04-22 03:09 | 35.26446 | -90.35360 | 11672 ft | 299 kts | 130° |
| 2026-04-22 03:09 | 35.25142 | -90.33410 | 11369 ft | 296 kts | 131° |
| 2026-04-22 03:09 | 35.23839 | -90.31461 | 11120 ft | 292 kts | 131° |
| 2026-04-22 03:09 | 35.22536 | -90.29518 | 10836 ft | 292 kts | 131° |
| 2026-04-22 03:10 | 35.21258 | -90.27610 | 10537 ft | 288 kts | 131° |
| 2026-04-22 03:10 | 35.19988 | -90.25713 | 10281 ft | 280 kts | 132° |
| 2026-04-22 03:10 | 35.18749 | -90.23864 | 10003 ft | 274 kts | 133° |
| 2026-04-22 03:10 | 35.17553 | -90.22080 | 9749 ft | 266 kts | 133° |
| 2026-04-22 03:11 | 35.16385 | -90.20338 | 9490 ft | 261 kts | 133° |
| 2026-04-22 03:11 | 35.15245 | -90.18640 | 9251 ft | 256 kts | 134° |
| 2026-04-22 03:11 | 35.14122 | -90.16969 | 9000 ft | 251 kts | 133° |
| 2026-04-22 03:11 | 35.13018 | -90.15325 | 8764 ft | 246 kts | 134° |
| 2026-04-22 03:12 | 35.11938 | -90.13718 | 8528 ft | 241 kts | 134° |
| 2026-04-22 03:12 | 35.09530 | -90.11114 | 8063 ft | 222 kts | 166° |
| 2026-04-22 03:12 | 35.08020 | -90.10905 | 7857 ft | 217 kts | 183° |
| 2026-04-22 03:13 | 35.06503 | -90.10942 | 7625 ft | 217 kts | 183° |
| 2026-04-22 03:13 | 35.04976 | -90.10970 | 7431 ft | 216 kts | 183° |
| 2026-04-22 03:13 | 35.03465 | -90.10996 | 7216 ft | 216 kts | 183° |
| 2026-04-22 03:13 | 35.01940 | -90.10986 | 7012 ft | 215 kts | 181° |
| 2026-04-22 03:14 | 35.00443 | -90.10935 | 6810 ft | 214 kts | 181° |
| 2026-04-22 03:14 | 34.98938 | -90.10885 | 6490 ft | 216 kts | 181° |
| 2026-04-22 03:14 | 34.97432 | -90.10834 | 6217 ft | 212 kts | 181° |
| 2026-04-22 03:14 | 34.95931 | -90.10784 | 5903 ft | 211 kts | 181° |
| 2026-04-22 03:15 | 34.94454 | -90.10735 | 5571 ft | 211 kts | 181° |
| 2026-04-22 03:15 | 34.92985 | -90.10686 | 5260 ft | 210 kts | 181° |
| 2026-04-22 03:15 | 34.91515 | -90.10638 | 4926 ft | 210 kts | 181° |
| 2026-04-22 03:15 | 34.90045 | -90.10589 | 4595 ft | 209 kts | 181° |
| 2026-04-22 03:16 | 34.88573 | -90.10540 | 4250 ft | 209 kts | 181° |
| 2026-04-22 03:16 | 34.87165 | -90.10168 | 3916 ft | 213 kts | 153° |
| 2026-04-22 03:16 | 34.86175 | -90.08791 | 3535 ft | 224 kts | 115° |
| 2026-04-22 03:16 | 34.85887 | -90.06883 | 3234 ft | 226 kts | 99° |
| 2026-04-22 03:17 | 34.85753 | -90.04989 | 3043 ft | 224 kts | 98° |
| 2026-04-22 03:17 | 34.85734 | -90.03082 | 2984 ft | 229 kts | 80° |
| 2026-04-22 03:17 | 34.86501 | -90.01391 | 2993 ft | 233 kts | 42° |
| 2026-04-22 03:17 | 34.87863 | -90.00296 | 2985 ft | 235 kts | 28° |
| 2026-04-22 03:18 | 34.89296 | -89.99328 | 2880 ft | 225 kts | 28° |
| 2026-04-22 03:18 | 34.90678 | -89.98581 | 2640 ft | 212 kts | 9° |
| 2026-04-22 03:18 | 34.92106 | -89.98518 | 2338 ft | 192 kts | 355° |
| 2026-04-22 03:18 | 34.93419 | -89.98520 | 2126 ft | 183 kts | 356° |
| 2026-04-22 03:19 | 34.94607 | -89.98522 | 1890 ft | 158 kts | 355° |
| 2026-04-22 03:19 | 34.95689 | -89.98541 | 1691 ft | 152 kts | 354° |
| 2026-04-22 03:19 | 34.96737 | -89.98568 | 1439 ft | 146 kts | 355° |
| 2026-04-22 03:19 | 34.97742 | -89.98608 | 1197 ft | 142 kts | 355° |
| 2026-04-22 03:20 | 34.98747 | -89.98637 | 1051 ft | 140 kts | 356° |
| 2026-04-22 03:20 | 34.99717 | -89.98660 | 909 ft | 138 kts | 356° |
| 2026-04-22 03:20 | 35.00670 | -89.98679 | 710 ft | 132 kts | 358° |
| 2026-04-22 03:20 | 35.01595 | -89.98686 | 573 ft | 133 kts | 358° |
| 2026-04-22 03:21 | 35.02508 | -89.98703 | 381 ft | 130 kts | 359° |
| 2026-04-22 03:21 | 35.03344 | -89.98714 | 344 ft | 103 kts | 359° |
| 2026-04-22 03:21 | 35.03957 | -89.98726 | 344 ft | 73 kts | 0° |
| 2026-04-22 03:21 | 35.04396 | -89.98726 | 344 ft | 54 kts | 6° |
| 2026-04-22 03:22 | 35.04729 | -89.98618 | 344 ft | 45 kts | 6° |
| 2026-04-22 03:22 | 35.05019 | -89.98576 | 343 ft | 39 kts | 21° |
| 2026-04-22 03:22 | 35.05271 | -89.98513 | 343 ft | 35 kts | 359° |
| 2026-04-22 03:22 | 35.05489 | -89.98511 | 343 ft | 22 kts | 0° |
| 2026-04-22 03:23 | 35.05572 | -89.98456 | 343 ft | 15 kts | 89° |
| 2026-04-22 03:23 | 35.05534 | -89.98365 | 343 ft | 12 kts | 148° |
| 2026-04-22 03:23 | 35.05496 | -89.98289 | 343 ft | 11 kts | 89° |
| 2026-04-22 03:23 | 35.05499 | -89.98182 | 343 ft | 13 kts | 76° |
| 2026-04-22 03:24 | 35.05480 | -89.98097 | 343 ft | 8 kts | 156° |
| 2026-04-22 03:24 | 35.05447 | -89.98122 | 343 ft | 5 kts | 255° |
| 2026-04-22 03:24 | 35.05447 | -89.98141 | 343 ft | 3 kts | 272° |
| 2026-04-22 03:24 | 35.05447 | -89.98144 | 343 ft | 0 kts | 272° |